BTK666 WIHH-WAHI
Flight info
| Callsign | BTK666 |
|---|---|
| Flight time | 0h 46m |
| Altitude | 33000 |
| Route | WIHH/06 N0467F330 PW1G PW W17 CLP CLP2H WAHI/11 |
| Aircraft | A320/M-SDE2E3FGHIRWXY/LB1 |
Departure
| Time | 2026-05-05 12:38 |
|---|---|
| Airport | Halim Perdanakusuma International Airport (WIHH) |
Arrival
| Time | 2026-05-05 13:24 |
|---|---|
| Airport | Yogyakarta International Airport (WAHI) |
| Time | Latitude | Longitude | Altitude | Speed | Heading |
|---|---|---|---|---|---|
| 2026-05-05 12:25 | -6.26663 | 106.88499 | 93 ft | 0 kts | 336° |
| 2026-05-05 12:31 | -6.26685 | 106.88509 | 94 ft | 3 kts | 336° |
| 2026-05-05 12:31 | -6.26691 | 106.88512 | 93 ft | 0 kts | 337° |
| 2026-05-05 12:32 | -6.26697 | 106.88514 | 95 ft | 16 kts | 335° |
| 2026-05-05 12:32 | -6.26693 | 106.88553 | 94 ft | 0 kts | 246° |
| 2026-05-05 12:32 | -6.26692 | 106.88552 | 93 ft | 0 kts | 246° |
| 2026-05-05 12:34 | -6.26692 | 106.88551 | 93 ft | 1 kts | 246° |
| 2026-05-05 12:34 | -6.26701 | 106.88531 | 93 ft | 4 kts | 246° |
| 2026-05-05 12:34 | -6.26718 | 106.88494 | 93 ft | 8 kts | 241° |
| 2026-05-05 12:34 | -6.26774 | 106.88486 | 93 ft | 11 kts | 158° |
| 2026-05-05 12:35 | -6.26853 | 106.88522 | 93 ft | 14 kts | 154° |
| 2026-05-05 12:35 | -6.26941 | 106.88494 | 91 ft | 16 kts | 239° |
| 2026-05-05 12:35 | -6.26995 | 106.88383 | 92 ft | 19 kts | 245° |
| 2026-05-05 12:35 | -6.27054 | 106.88255 | 93 ft | 21 kts | 245° |
| 2026-05-05 12:36 | -6.27118 | 106.88116 | 92 ft | 23 kts | 244° |
| 2026-05-05 12:36 | -6.27170 | 106.87967 | 93 ft | 23 kts | 273° |
| 2026-05-05 12:36 | -6.27204 | 106.87909 | 96 ft | 5 kts | 150° |
| 2026-05-05 12:36 | -6.27195 | 106.87948 | 94 ft | 7 kts | 64° |
| 2026-05-05 12:37 | -6.27121 | 106.88110 | 92 ft | 60 kts | 65° |
| 2026-05-05 12:37 | -6.26851 | 106.88698 | 93 ft | 122 kts | 65° |
| 2026-05-05 12:37 | -6.26427 | 106.89617 | 99 ft | 170 kts | 64° |
| 2026-05-05 12:37 | -6.25915 | 106.90763 | 544 ft | 181 kts | 68° |
| 2026-05-05 12:38 | -6.25465 | 106.91924 | 1300 ft | 176 kts | 75° |
| 2026-05-05 12:38 | -6.25507 | 106.93183 | 1676 ft | 192 kts | 112° |
| 2026-05-05 12:38 | -6.26180 | 106.94415 | 2040 ft | 213 kts | 120° |
| 2026-05-05 12:38 | -6.27007 | 106.95734 | 2486 ft | 234 kts | 121° |
| 2026-05-05 12:39 | -6.27949 | 106.97163 | 2972 ft | 255 kts | 123° |
| 2026-05-05 12:39 | -6.28969 | 106.98664 | 3683 ft | 264 kts | 123° |
| 2026-05-05 12:39 | -6.29985 | 107.00180 | 3932 ft | 265 kts | 123° |
| 2026-05-05 12:39 | -6.31014 | 107.01748 | 3998 ft | 265 kts | 122° |
| 2026-05-05 12:40 | -6.32014 | 107.03303 | 4006 ft | 265 kts | 122° |
| 2026-05-05 12:40 | -6.33003 | 107.04862 | 4006 ft | 264 kts | 121° |
| 2026-05-05 12:40 | -6.34163 | 107.06287 | 4009 ft | 265 kts | 140° |
| 2026-05-05 12:40 | -6.35753 | 107.07239 | 4023 ft | 268 kts | 152° |
| 2026-05-05 12:41 | -6.37433 | 107.08086 | 4589 ft | 273 kts | 152° |
| 2026-05-05 12:41 | -6.39102 | 107.08927 | 5763 ft | 258 kts | 152° |
| 2026-05-05 12:41 | -6.40570 | 107.09826 | 7079 ft | 238 kts | 139° |
| 2026-05-05 12:41 | -6.41661 | 107.11027 | 8028 ft | 232 kts | 122° |
| 2026-05-05 12:42 | -6.42372 | 107.12454 | 8780 ft | 232 kts | 112° |
| 2026-05-05 12:42 | -6.43019 | 107.13948 | 9506 ft | 234 kts | 112° |
| 2026-05-05 12:42 | -6.43674 | 107.15453 | 10178 ft | 237 kts | 112° |
| 2026-05-05 12:42 | -6.44378 | 107.17063 | 10471 ft | 260 kts | 113° |
| 2026-05-05 12:43 | -6.45142 | 107.18803 | 10702 ft | 284 kts | 113° |
| 2026-05-05 12:43 | -6.45971 | 107.20695 | 10894 ft | 307 kts | 113° |
| 2026-05-05 12:43 | -6.46852 | 107.22704 | 11047 ft | 330 kts | 113° |
| 2026-05-05 12:43 | -6.47809 | 107.24881 | 11237 ft | 348 kts | 113° |
| 2026-05-05 12:44 | -6.48803 | 107.27133 | 11753 ft | 355 kts | 113° |
| 2026-05-05 12:44 | -6.49810 | 107.29415 | 12358 ft | 359 kts | 113° |
| 2026-05-05 12:44 | -6.50935 | 107.31671 | 12961 ft | 364 kts | 123° |
| 2026-05-05 12:44 | -6.52667 | 107.33541 | 13553 ft | 370 kts | 142° |
| 2026-05-05 12:45 | -6.54916 | 107.34838 | 14095 ft | 375 kts | 152° |
| 2026-05-05 12:45 | -6.57270 | 107.36009 | 14638 ft | 378 kts | 153° |
| 2026-05-05 12:45 | -6.59645 | 107.37172 | 15167 ft | 381 kts | 153° |
| 2026-05-05 12:45 | -6.62042 | 107.38337 | 15704 ft | 385 kts | 153° |
| 2026-05-05 12:46 | -6.64459 | 107.39515 | 16233 ft | 387 kts | 153° |
| 2026-05-05 12:46 | -6.66894 | 107.40708 | 16759 ft | 390 kts | 153° |
| 2026-05-05 12:46 | -6.69346 | 107.41914 | 17280 ft | 394 kts | 153° |
| 2026-05-05 12:46 | -6.71815 | 107.43132 | 17809 ft | 397 kts | 153° |
| 2026-05-05 12:47 | -6.74308 | 107.44363 | 18327 ft | 400 kts | 153° |
| 2026-05-05 12:47 | -6.76821 | 107.45603 | 18782 ft | 404 kts | 153° |
| 2026-05-05 12:47 | -6.79350 | 107.46854 | 19244 ft | 407 kts | 153° |
| 2026-05-05 12:47 | -6.81898 | 107.48112 | 19718 ft | 410 kts | 153° |
| 2026-05-05 12:48 | -6.84454 | 107.49404 | 20190 ft | 412 kts | 149° |
| 2026-05-05 12:48 | -6.86811 | 107.51056 | 20640 ft | 414 kts | 138° |
| 2026-05-05 12:48 | -6.88827 | 107.53143 | 21087 ft | 416 kts | 128° |
| 2026-05-05 12:48 | -6.90413 | 107.55583 | 21523 ft | 418 kts | 117° |
| 2026-05-05 12:49 | -6.91709 | 107.58171 | 21937 ft | 421 kts | 116° |
| 2026-05-05 12:49 | -6.93046 | 107.60846 | 22351 ft | 424 kts | 116° |
| 2026-05-05 12:49 | -6.94360 | 107.63472 | 22738 ft | 426 kts | 116° |
| 2026-05-05 12:49 | -6.95700 | 107.66144 | 23121 ft | 429 kts | 116° |
| 2026-05-05 12:50 | -6.97052 | 107.68830 | 23493 ft | 431 kts | 116° |
| 2026-05-05 12:50 | -6.98414 | 107.71531 | 23792 ft | 434 kts | 116° |
| 2026-05-05 12:50 | -6.99780 | 107.74249 | 24093 ft | 436 kts | 116° |
| 2026-05-05 12:50 | -7.01152 | 107.76980 | 24398 ft | 438 kts | 116° |
| 2026-05-05 12:51 | -7.02528 | 107.79720 | 24698 ft | 440 kts | 116° |
| 2026-05-05 12:51 | -7.03910 | 107.82476 | 24983 ft | 442 kts | 116° |
| 2026-05-05 12:51 | -7.05297 | 107.85244 | 25283 ft | 444 kts | 116° |
| 2026-05-05 12:51 | -7.06692 | 107.88019 | 25584 ft | 445 kts | 116° |
| 2026-05-05 12:52 | -7.08094 | 107.90808 | 25871 ft | 447 kts | 116° |
| 2026-05-05 12:52 | -7.09501 | 107.93611 | 26156 ft | 449 kts | 116° |
| 2026-05-05 12:52 | -7.10916 | 107.96424 | 26426 ft | 451 kts | 116° |
| 2026-05-05 12:52 | -7.12335 | 107.99249 | 26703 ft | 453 kts | 116° |
| 2026-05-05 12:53 | -7.13758 | 108.02088 | 26961 ft | 455 kts | 116° |
| 2026-05-05 12:53 | -7.15182 | 108.04937 | 27232 ft | 456 kts | 116° |
| 2026-05-05 12:53 | -7.16608 | 108.07792 | 27493 ft | 458 kts | 116° |
| 2026-05-05 12:53 | -7.18050 | 108.10665 | 27759 ft | 460 kts | 116° |
| 2026-05-05 12:54 | -7.20950 | 108.16438 | 28294 ft | 464 kts | 116° |
| 2026-05-05 12:54 | -7.22403 | 108.19343 | 28556 ft | 465 kts | 116° |
| 2026-05-05 12:54 | -7.23864 | 108.22264 | 28810 ft | 467 kts | 116° |
| 2026-05-05 12:55 | -7.25327 | 108.25193 | 29062 ft | 469 kts | 116° |
| 2026-05-05 12:55 | -7.26796 | 108.28135 | 29346 ft | 470 kts | 116° |
| 2026-05-05 12:55 | -7.28266 | 108.31077 | 29726 ft | 469 kts | 116° |
| 2026-05-05 12:55 | -7.29734 | 108.34007 | 30095 ft | 468 kts | 116° |
| 2026-05-05 12:56 | -7.31200 | 108.36932 | 30417 ft | 468 kts | 116° |
| 2026-05-05 12:56 | -7.32667 | 108.39851 | 30731 ft | 467 kts | 116° |
| 2026-05-05 12:56 | -7.34135 | 108.42774 | 31055 ft | 467 kts | 116° |
| 2026-05-05 12:56 | -7.35598 | 108.45691 | 31386 ft | 466 kts | 116° |
| 2026-05-05 12:57 | -7.37059 | 108.48613 | 31723 ft | 466 kts | 116° |
| 2026-05-05 12:57 | -7.38512 | 108.51523 | 32069 ft | 465 kts | 116° |
| 2026-05-05 12:57 | -7.39967 | 108.54433 | 32424 ft | 464 kts | 116° |
| 2026-05-05 12:57 | -7.41416 | 108.57335 | 32782 ft | 464 kts | 116° |
| 2026-05-05 12:58 | -7.42866 | 108.60246 | 32925 ft | 465 kts | 116° |
| 2026-05-05 12:58 | -7.45759 | 108.66046 | 32939 ft | 467 kts | 116° |
| 2026-05-05 12:59 | -7.48681 | 108.71902 | 32943 ft | 468 kts | 116° |
| 2026-05-05 12:59 | -7.51129 | 108.76810 | 32941 ft | 468 kts | 116° |
| 2026-05-05 13:00 | -7.55497 | 108.85566 | 32936 ft | 468 kts | 116° |
| 2026-05-05 13:01 | -7.61343 | 108.97306 | 32928 ft | 468 kts | 116° |
| 2026-05-05 13:01 | -7.64047 | 109.03268 | 32930 ft | 468 kts | 107° |
| 2026-05-05 13:02 | -7.65229 | 109.09695 | 32925 ft | 467 kts | 96° |
| 2026-05-05 13:02 | -7.66034 | 109.16194 | 32920 ft | 468 kts | 97° |
| 2026-05-05 13:03 | -7.66850 | 109.22686 | 32331 ft | 465 kts | 97° |
| 2026-05-05 13:03 | -7.67258 | 109.25928 | 31502 ft | 467 kts | 97° |
| 2026-05-05 13:03 | -7.67665 | 109.29187 | 30684 ft | 469 kts | 97° |
| 2026-05-05 13:04 | -7.68072 | 109.32451 | 29849 ft | 470 kts | 96° |
| 2026-05-05 13:04 | -7.68478 | 109.35727 | 28864 ft | 472 kts | 96° |
| 2026-05-05 13:04 | -7.68886 | 109.39018 | 27918 ft | 473 kts | 96° |
| 2026-05-05 13:04 | -7.69291 | 109.42284 | 27244 ft | 467 kts | 97° |
| 2026-05-05 13:05 | -7.69691 | 109.45521 | 26571 ft | 462 kts | 97° |
| 2026-05-05 13:05 | -7.70089 | 109.48720 | 25918 ft | 458 kts | 97° |
| 2026-05-05 13:05 | -7.70484 | 109.51887 | 25279 ft | 453 kts | 97° |
| 2026-05-05 13:05 | -7.70877 | 109.55032 | 24656 ft | 449 kts | 97° |
| 2026-05-05 13:06 | -7.71263 | 109.58134 | 24055 ft | 445 kts | 97° |
| 2026-05-05 13:06 | -7.71644 | 109.61220 | 23457 ft | 441 kts | 97° |
| 2026-05-05 13:06 | -7.72017 | 109.64274 | 22766 ft | 437 kts | 97° |
| 2026-05-05 13:06 | -7.72386 | 109.67300 | 22095 ft | 433 kts | 97° |
| 2026-05-05 13:07 | -7.72755 | 109.70301 | 21458 ft | 429 kts | 97° |
| 2026-05-05 13:07 | -7.73121 | 109.73271 | 20858 ft | 425 kts | 97° |
| 2026-05-05 13:07 | -7.73484 | 109.76212 | 20278 ft | 421 kts | 97° |
| 2026-05-05 13:07 | -7.73848 | 109.79132 | 19733 ft | 418 kts | 97° |
| 2026-05-05 13:08 | -7.74209 | 109.82027 | 19208 ft | 415 kts | 97° |
| 2026-05-05 13:08 | -7.74562 | 109.84868 | 18714 ft | 412 kts | 97° |
| 2026-05-05 13:08 | -7.74914 | 109.87726 | 18231 ft | 409 kts | 97° |
| 2026-05-05 13:08 | -7.75552 | 109.90498 | 17684 ft | 405 kts | 113° |
| 2026-05-05 13:09 | -7.77024 | 109.92890 | 17165 ft | 400 kts | 132° |
| 2026-05-05 13:09 | -7.79183 | 109.94612 | 16634 ft | 396 kts | 152° |
| 2026-05-05 13:09 | -7.81764 | 109.95498 | 16091 ft | 393 kts | 171° |
| 2026-05-05 13:09 | -7.84476 | 109.95476 | 15537 ft | 391 kts | 189° |
| 2026-05-05 13:10 | -7.87111 | 109.94825 | 14950 ft | 389 kts | 194° |
| 2026-05-05 13:10 | -7.89713 | 109.94130 | 14369 ft | 386 kts | 194° |
| 2026-05-05 13:10 | -7.92302 | 109.93428 | 13810 ft | 383 kts | 193° |
| 2026-05-05 13:10 | -7.94869 | 109.92730 | 13220 ft | 380 kts | 193° |
| 2026-05-05 13:11 | -7.97412 | 109.92039 | 12604 ft | 377 kts | 193° |
| 2026-05-05 13:11 | -7.99941 | 109.91357 | 12004 ft | 374 kts | 193° |
| 2026-05-05 13:11 | -8.02449 | 109.90683 | 11135 ft | 373 kts | 193° |
| 2026-05-05 13:11 | -8.04978 | 109.90010 | 9698 ft | 379 kts | 193° |
| 2026-05-05 13:12 | -8.07501 | 109.89347 | 8816 ft | 366 kts | 193° |
| 2026-05-05 13:12 | -8.09925 | 109.88709 | 8425 ft | 354 kts | 193° |
| 2026-05-05 13:12 | -8.12268 | 109.88098 | 8220 ft | 340 kts | 192° |
| 2026-05-05 13:12 | -8.14528 | 109.87910 | 8099 ft | 324 kts | 170° |
| 2026-05-05 13:13 | -8.16575 | 109.88645 | 8044 ft | 305 kts | 146° |
| 2026-05-05 13:13 | -8.18060 | 109.90069 | 8043 ft | 288 kts | 123° |
| 2026-05-05 13:13 | -8.18845 | 109.91884 | 8041 ft | 282 kts | 102° |
| 2026-05-05 13:13 | -8.19266 | 109.93814 | 8042 ft | 281 kts | 102° |
| 2026-05-05 13:14 | -8.19588 | 109.95755 | 8040 ft | 280 kts | 89° |
| 2026-05-05 13:14 | -8.19168 | 109.97643 | 8039 ft | 274 kts | 63° |
| 2026-05-05 13:14 | -8.18004 | 109.99097 | 7970 ft | 264 kts | 38° |
| 2026-05-05 13:14 | -8.16384 | 109.99877 | 7843 ft | 257 kts | 14° |
| 2026-05-05 13:15 | -8.14646 | 110.00260 | 7476 ft | 260 kts | 14° |
| 2026-05-05 13:15 | -8.12797 | 110.00443 | 6816 ft | 277 kts | 356° |
| 2026-05-05 13:15 | -8.10900 | 109.99964 | 6320 ft | 286 kts | 336° |
| 2026-05-05 13:15 | -8.09164 | 109.98970 | 5916 ft | 288 kts | 330° |
| 2026-05-05 13:16 | -8.07445 | 109.97934 | 5539 ft | 288 kts | 330° |
| 2026-05-05 13:16 | -8.05761 | 109.96925 | 5188 ft | 281 kts | 330° |
| 2026-05-05 13:16 | -8.04117 | 109.95941 | 4845 ft | 269 kts | 330° |
| 2026-05-05 13:16 | -8.02537 | 109.94995 | 4494 ft | 259 kts | 330° |
| 2026-05-05 13:17 | -8.01020 | 109.94086 | 4145 ft | 248 kts | 330° |
| 2026-05-05 13:17 | -7.99565 | 109.93214 | 3822 ft | 239 kts | 331° |
| 2026-05-05 13:17 | -7.98176 | 109.92382 | 3512 ft | 227 kts | 330° |
| 2026-05-05 13:17 | -7.96825 | 109.91572 | 3233 ft | 224 kts | 331° |
| 2026-05-05 13:18 | -7.95490 | 109.90774 | 2931 ft | 224 kts | 331° |
| 2026-05-05 13:18 | -7.94151 | 109.89973 | 2646 ft | 223 kts | 332° |
| 2026-05-05 13:18 | -7.92737 | 109.89419 | 2384 ft | 212 kts | 351° |
| 2026-05-05 13:18 | -7.91294 | 109.89091 | 2259 ft | 211 kts | 349° |
| 2026-05-05 13:19 | -7.89859 | 109.88891 | 2097 ft | 206 kts | 7° |
| 2026-05-05 13:19 | -7.88488 | 109.89194 | 1958 ft | 201 kts | 28° |
| 2026-05-05 13:19 | -7.87338 | 109.89934 | 1802 ft | 188 kts | 47° |
| 2026-05-05 13:19 | -7.86576 | 109.90902 | 1704 ft | 165 kts | 65° |
| 2026-05-05 13:20 | -7.86179 | 109.91913 | 1570 ft | 148 kts | 78° |
| 2026-05-05 13:20 | -7.86073 | 109.92894 | 1473 ft | 136 kts | 93° |
| 2026-05-05 13:20 | -7.86202 | 109.93820 | 1408 ft | 132 kts | 105° |
| 2026-05-05 13:20 | -7.86502 | 109.94689 | 1354 ft | 132 kts | 111° |
| 2026-05-05 13:21 | -7.86823 | 109.95557 | 1278 ft | 132 kts | 112° |
| 2026-05-05 13:21 | -7.87153 | 109.96406 | 1206 ft | 129 kts | 112° |
| 2026-05-05 13:21 | -7.87474 | 109.97258 | 1089 ft | 129 kts | 109° |
| 2026-05-05 13:21 | -7.87756 | 109.98112 | 922 ft | 130 kts | 110° |
| 2026-05-05 13:22 | -7.88080 | 109.98983 | 701 ft | 132 kts | 111° |
| 2026-05-05 13:22 | -7.88375 | 109.99852 | 612 ft | 131 kts | 111° |
| 2026-05-05 13:22 | -7.88699 | 110.00711 | 591 ft | 129 kts | 111° |
| 2026-05-05 13:22 | -7.88997 | 110.01554 | 598 ft | 127 kts | 112° |
| 2026-05-05 13:23 | -7.89310 | 110.02393 | 477 ft | 129 kts | 110° |
| 2026-05-05 13:23 | -7.89623 | 110.03251 | 299 ft | 131 kts | 112° |
| 2026-05-05 13:23 | -7.89944 | 110.04108 | 143 ft | 131 kts | 111° |
| 2026-05-05 13:23 | -7.90248 | 110.04942 | 38 ft | 110 kts | 110° |
| 2026-05-05 13:24 | -7.90452 | 110.05498 | 42 ft | 60 kts | 110° |
| 2026-05-05 13:24 | -7.90556 | 110.05786 | 45 ft | 39 kts | 110° |
| 2026-05-05 13:24 | -7.90650 | 110.06033 | 43 ft | 38 kts | 109° |
| 2026-05-05 13:24 | -7.90661 | 110.06277 | 43 ft | 28 kts | 80° |
| 2026-05-05 13:25 | -7.90578 | 110.06344 | 42 ft | 10 kts | 327° |
| 2026-05-05 13:25 | -7.90555 | 110.06288 | 42 ft | 11 kts | 290° |
| 2026-05-05 13:25 | -7.90526 | 110.06206 | 42 ft | 13 kts | 290° |
| 2026-05-05 13:25 | -7.90494 | 110.06117 | 44 ft | 14 kts | 290° |
| 2026-05-05 13:26 | -7.90457 | 110.06018 | 42 ft | 16 kts | 290° |
| 2026-05-05 13:26 | -7.90416 | 110.05898 | 44 ft | 20 kts | 288° |
| 2026-05-05 13:26 | -7.90367 | 110.05768 | 45 ft | 18 kts | 303° |
| 2026-05-05 13:26 | -7.90250 | 110.05782 | 39 ft | 21 kts | 22° |
| 2026-05-05 13:27 | -7.90173 | 110.05751 | 38 ft | 12 kts | 289° |
| 2026-05-05 13:27 | -7.90124 | 110.05690 | 38 ft | 12 kts | 10° |
| 2026-05-05 13:27 | -7.90053 | 110.05717 | 38 ft | 3 kts | 20° |
| 2026-05-05 13:27 | -7.90047 | 110.05719 | 38 ft | 0 kts | 20° |